createdAt,value
2016-11-17T00:00:44.740Z,9.46
2016-11-17T00:02:44.779Z,9.33
2016-11-17T00:04:44.816Z,9.42
2016-11-17T00:05:44.839Z,9.36
2016-11-17T00:06:44.855Z,9.36
2016-11-17T00:07:44.876Z,9.39
2016-11-17T00:08:44.900Z,9.35
2016-11-17T00:09:44.922Z,9.39
2016-11-17T00:11:59.873Z,9.39
2016-11-17T00:12:44.983Z,9.47
2016-11-17T00:13:44.997Z,9.42
2016-11-17T00:14:45.018Z,9.47
2016-11-17T00:15:45.038Z,9.5
2016-11-17T00:17:59.997Z,9.48
2016-11-17T00:18:45.108Z,9.56
2016-11-17T00:19:45.123Z,9.54
2016-11-17T00:20:45.150Z,9.43
2016-11-17T00:21:45.170Z,9.48
2016-11-17T00:22:45.189Z,9.56
2016-11-17T00:23:45.207Z,9.56
2016-11-17T00:25:00.145Z,9.58
2016-11-17T00:25:45.251Z,9.61
2016-11-17T00:26:45.264Z,9.66
2016-11-17T00:27:45.288Z,9.61
2016-11-17T00:28:45.311Z,9.64
2016-11-17T00:29:45.329Z,9.61
2016-11-17T00:30:45.349Z,9.65
2016-11-17T00:31:45.375Z,9.65
2016-11-17T00:32:45.394Z,9.6
2016-11-17T00:34:00.382Z,9.54
2016-11-17T00:34:45.439Z,9.56
2016-11-17T00:35:45.457Z,9.61
2016-11-17T00:36:45.476Z,9.54
2016-11-17T00:37:45.493Z,9.58
2016-11-17T00:38:45.517Z,9.51
2016-11-17T00:40:00.455Z,9.58
2016-11-17T00:41:00.476Z,9.65
2016-11-17T00:41:45.581Z,9.58
2016-11-17T00:42:45.600Z,9.53
2016-11-17T00:43:45.624Z,9.46
2016-11-17T00:44:45.642Z,9.4
2016-11-17T00:45:45.664Z,9.66
2016-11-17T00:46:45.680Z,9.5
2016-11-17T00:47:46.008Z,9.51
2016-11-17T00:48:45.731Z,9.47
2016-11-17T00:50:00.663Z,9.42
2016-11-17T00:50:45.767Z,9.43
2016-11-17T00:51:45.787Z,9.57
2016-11-17T00:52:45.814Z,9.56
2016-11-17T00:53:45.826Z,9.57
2016-11-17T00:54:45.850Z,9.53
2016-11-17T00:56:00.787Z,9.54
2016-11-17T00:56:45.891Z,9.43
2016-11-17T00:57:45.914Z,9.46
2016-11-17T00:59:00.846Z,9.46
2016-11-17T00:59:45.953Z,9.5
2016-11-17T01:00:45.972Z,9.46
2016-11-17T01:01:46.001Z,9.46
2016-11-17T01:02:46.016Z,9.47
2016-11-17T01:05:00.979Z,9.56
2016-11-17T01:05:46.080Z,9.53
2016-11-17T01:06:46.105Z,9.65
2016-11-17T01:07:46.149Z,9.61
2016-11-17T01:08:46.144Z,9.54
2016-11-17T01:09:46.161Z,9.56
2016-11-17T01:10:46.492Z,9.65
2016-11-17T01:11:46.208Z,9.64
2016-11-17T01:13:01.138Z,9.61
2016-11-17T01:13:46.243Z,9.58
2016-11-17T01:14:46.272Z,9.65
2016-11-17T01:15:46.285Z,9.72
2016-11-17T01:16:46.310Z,9.65
2016-11-17T01:17:46.327Z,9.64
2016-11-17T01:18:46.349Z,9.61
2016-11-17T01:19:46.367Z,9.57
2016-11-17T01:20:46.390Z,9.54
2016-11-17T01:21:46.410Z,9.5
2016-11-17T01:22:46.434Z,9.54
2016-11-17T01:23:46.499Z,9.43
2016-11-17T01:24:46.776Z,9.43
2016-11-17T01:25:46.498Z,9.42
2016-11-17T01:26:46.519Z,9.48
2016-11-17T01:27:46.540Z,9.46
2016-11-17T01:28:46.560Z,9.48
2016-11-17T01:29:46.577Z,9.43
2016-11-17T01:30:46.595Z,9.43
2016-11-17T01:31:46.624Z,9.56
2016-11-17T01:32:46.635Z,9.54
2016-11-17T01:33:46.670Z,9.61
2016-11-17T01:34:46.714Z,9.61
2016-11-17T01:35:46.703Z,9.6
2016-11-17T01:37:01.641Z,9.64
2016-11-17T01:37:46.747Z,9.66
2016-11-17T01:38:46.768Z,9.6
2016-11-17T01:39:46.831Z,9.58
2016-11-17T01:40:46.807Z,9.6
2016-11-17T01:41:46.825Z,9.74
2016-11-17T01:43:01.766Z,9.58
2016-11-17T01:43:46.873Z,9.68
2016-11-17T01:44:46.894Z,9.68
2016-11-17T01:45:46.911Z,9.69
2016-11-17T01:46:46.931Z,9.75
2016-11-17T01:47:46.952Z,9.69
2016-11-17T01:48:46.984Z,9.71
2016-11-17T01:49:47.000Z,9.69
2016-11-17T01:50:47.046Z,9.65
2016-11-17T01:51:47.039Z,9.76
2016-11-17T01:53:01.971Z,9.72
2016-11-17T01:53:47.080Z,9.72
2016-11-17T01:54:47.095Z,9.74
2016-11-17T01:55:47.127Z,9.69
2016-11-17T01:56:47.157Z,9.68
2016-11-17T01:57:47.160Z,9.75
2016-11-17T01:58:47.183Z,9.71
2016-11-17T01:59:47.203Z,9.86
2016-11-17T02:00:47.229Z,9.87
2016-11-17T02:01:47.251Z,9.75
2016-11-17T02:03:47.282Z,9.71
2016-11-17T02:04:47.617Z,9.71
2016-11-17T02:05:47.325Z,9.71
2016-11-17T02:06:47.343Z,9.68
2016-11-17T02:07:47.372Z,9.74
2016-11-17T02:09:02.304Z,9.79
2016-11-17T02:09:47.409Z,9.64
2016-11-17T02:10:47.432Z,9.69
2016-11-17T02:11:47.458Z,9.72
2016-11-17T02:12:47.479Z,9.71
2016-11-17T02:13:47.492Z,9.68
2016-11-17T02:14:47.519Z,9.65
2016-11-17T02:15:47.534Z,9.57
2016-11-17T02:16:47.584Z,9.66
2016-11-17T02:17:47.575Z,9.65
2016-11-17T02:18:47.592Z,9.64
2016-11-17T02:19:47.631Z,9.66
2016-11-17T02:20:47.639Z,9.64
2016-11-17T02:21:47.658Z,9.65
2016-11-17T02:22:47.681Z,9.65
2016-11-17T02:23:47.697Z,9.65
2016-11-17T02:25:02.634Z,9.66
2016-11-17T02:25:47.741Z,9.61
2016-11-17T02:26:47.758Z,9.61
2016-11-17T02:27:47.781Z,9.68
2016-11-17T02:28:47.833Z,9.71
2016-11-17T02:29:47.823Z,9.74
2016-11-17T02:30:47.842Z,9.66
2016-11-17T02:31:47.865Z,9.64
2016-11-17T02:32:47.882Z,9.58
2016-11-17T02:33:47.910Z,9.58
2016-11-17T02:34:47.928Z,9.64
2016-11-17T02:35:47.952Z,9.71
2016-11-17T02:36:47.966Z,9.65
2016-11-17T02:37:47.986Z,9.64
2016-11-17T02:38:48.106Z,9.65
2016-11-17T02:40:02.947Z,9.68
2016-11-17T02:40:48.054Z,9.65
2016-11-17T02:41:48.069Z,9.64
2016-11-17T02:42:48.092Z,9.68
2016-11-17T02:43:48.113Z,9.65
2016-11-17T02:45:03.049Z,9.66
2016-11-17T02:45:48.153Z,9.61
2016-11-17T02:46:48.174Z,9.69
2016-11-17T02:47:48.196Z,9.71
2016-11-17T02:48:48.262Z,9.69
2016-11-17T02:49:48.238Z,9.64
2016-11-17T02:50:48.260Z,9.72
2016-11-17T02:51:48.273Z,9.66
2016-11-17T02:52:48.298Z,9.69
2016-11-17T02:53:48.321Z,9.72
2016-11-17T02:54:48.339Z,9.65
2016-11-17T02:55:48.410Z,9.57
2016-11-17T02:56:48.379Z,9.61
2016-11-17T02:57:48.401Z,9.71
2016-11-17T02:58:48.420Z,9.69
2016-11-17T02:59:48.447Z,9.69
2016-11-17T03:00:48.777Z,9.65
2016-11-17T03:02:03.400Z,9.65
2016-11-17T03:02:48.506Z,9.66
2016-11-17T03:03:48.527Z,9.6
2016-11-17T03:04:48.548Z,9.57
2016-11-17T03:05:48.581Z,9.57
2016-11-17T03:06:48.593Z,9.64
2016-11-17T03:07:48.624Z,9.5
2016-11-17T03:09:48.654Z,9.4
2016-11-17T03:10:48.671Z,9.51
2016-11-17T03:12:03.912Z,9.51
2016-11-17T03:12:48.714Z,9.6
2016-11-17T03:13:48.733Z,9.56
2016-11-17T03:14:48.750Z,9.61
2016-11-17T03:15:48.774Z,9.57
2016-11-17T03:16:48.843Z,9.54
2016-11-17T03:18:03.731Z,9.58
2016-11-17T03:18:48.832Z,9.65
2016-11-17T03:19:48.852Z,9.6
2016-11-17T03:20:48.873Z,9.66
2016-11-17T03:22:03.810Z,9.6
2016-11-17T03:22:48.919Z,9.56
2016-11-17T03:24:48.957Z,9.57
2016-11-17T03:25:48.979Z,9.58
2016-11-17T03:26:48.999Z,9.65
2016-11-17T03:28:03.937Z,9.54
2016-11-17T03:28:49.043Z,9.57
2016-11-17T03:29:49.065Z,9.57
2016-11-17T03:30:49.083Z,9.61
2016-11-17T03:31:49.139Z,9.66
2016-11-17T03:32:49.125Z,9.65
2016-11-17T03:33:49.145Z,9.68
2016-11-17T03:34:49.175Z,9.71
2016-11-17T03:35:49.187Z,9.61
2016-11-17T03:36:49.205Z,9.68
2016-11-17T03:37:49.231Z,9.66
2016-11-17T03:39:49.275Z,9.78
2016-11-17T03:41:49.315Z,9.74
2016-11-17T03:42:49.336Z,9.86
2016-11-17T03:44:04.268Z,9.86
2016-11-17T03:44:49.378Z,9.86
2016-11-17T03:45:49.396Z,9.75
2016-11-17T03:46:49.417Z,9.79
2016-11-17T03:47:49.438Z,9.72
2016-11-17T03:48:49.465Z,9.78
2016-11-17T03:49:49.482Z,9.83
2016-11-17T03:50:49.503Z,9.81
2016-11-17T03:51:49.523Z,9.83
2016-11-17T03:53:04.457Z,9.81
2016-11-17T03:53:49.563Z,9.84
2016-11-17T03:54:49.581Z,9.81
2016-11-17T03:55:49.602Z,9.84
2016-11-17T03:56:49.627Z,9.86
2016-11-17T03:57:49.653Z,9.86
2016-11-17T03:58:49.675Z,9.72
2016-11-17T04:00:04.604Z,9.78
2016-11-17T04:00:49.708Z,9.86
2016-11-17T04:01:49.731Z,9.79
2016-11-17T04:02:49.752Z,9.93
2016-11-17T04:03:49.770Z,9.93
2016-11-17T04:04:49.796Z,9.87
2016-11-17T04:05:49.820Z,9.94
2016-11-17T04:06:49.831Z,9.94
2016-11-17T04:07:49.856Z,9.97
2016-11-17T04:09:04.790Z,9.97
2016-11-17T04:09:49.895Z,10.01
2016-11-17T04:10:49.920Z,10.01
2016-11-17T04:11:49.939Z,9.9
2016-11-17T04:12:49.964Z,9.93
2016-11-17T04:15:50.031Z,9.86
2016-11-17T04:16:50.045Z,9.89
2016-11-17T04:18:50.087Z,9.91
2016-11-17T04:19:50.161Z,9.9
2016-11-17T04:21:05.044Z,9.93
2016-11-17T04:21:50.150Z,9.9
2016-11-17T04:22:50.172Z,9.81
2016-11-17T04:23:50.246Z,9.91
2016-11-17T04:24:50.211Z,9.91
2016-11-17T04:25:50.228Z,9.91
2016-11-17T04:26:50.254Z,9.93
2016-11-17T04:27:50.273Z,9.9
2016-11-17T04:28:50.295Z,9.97
2016-11-17T04:29:50.313Z,9.99
2016-11-17T04:30:50.338Z,9.96
2016-11-17T04:31:50.359Z,9.94
2016-11-17T04:32:50.378Z,9.99
2016-11-17T04:33:50.401Z,9.89
2016-11-17T04:34:50.429Z,9.96
2016-11-17T04:36:50.462Z,10.01
2016-11-17T04:37:50.485Z,10.01
2016-11-17T04:38:50.505Z,10.07
2016-11-17T04:39:50.827Z,9.96
2016-11-17T04:40:50.546Z,10.01
2016-11-17T04:41:50.575Z,10.02
2016-11-17T04:42:50.588Z,9.94
2016-11-17T04:43:50.608Z,10.05
2016-11-17T04:45:50.656Z,9.99
2016-11-17T04:47:05.589Z,9.99
2016-11-17T04:47:50.694Z,10.01
2016-11-17T04:48:50.714Z,9.96
2016-11-17T04:49:50.764Z,10.02
2016-11-17T04:50:50.755Z,9.93
2016-11-17T04:51:50.774Z,9.94
2016-11-17T04:52:50.799Z,9.91
2016-11-17T04:53:50.814Z,9.99
2016-11-17T04:54:50.836Z,9.96
2016-11-17T04:55:50.863Z,9.86
2016-11-17T04:57:50.903Z,10.01
2016-11-17T04:58:50.929Z,9.99
2016-11-17T04:59:50.946Z,9.9
2016-11-17T05:00:50.967Z,10.02
2016-11-17T05:01:50.984Z,9.93
2016-11-17T05:03:05.925Z,9.94
2016-11-17T05:03:51.031Z,9.93
2016-11-17T05:04:51.049Z,9.93
2016-11-17T05:05:51.072Z,9.94
2016-11-17T05:06:51.090Z,9.94
2016-11-17T05:07:51.113Z,9.94
2016-11-17T05:08:51.133Z,9.94
2016-11-17T05:09:51.151Z,9.93
2016-11-17T05:10:51.222Z,9.93
2016-11-17T05:11:51.199Z,9.84
2016-11-17T05:12:51.217Z,9.91
2016-11-17T05:13:51.237Z,9.91
2016-11-17T05:14:51.261Z,9.9
2016-11-17T05:16:51.296Z,9.84
2016-11-17T05:17:51.323Z,9.86
2016-11-17T05:19:06.260Z,9.81
2016-11-17T05:19:51.366Z,9.86
2016-11-17T05:20:51.390Z,9.9
2016-11-17T05:21:51.408Z,9.89
2016-11-17T05:22:51.432Z,9.86
2016-11-17T05:23:51.449Z,9.86
2016-11-17T05:24:51.465Z,9.96
2016-11-17T05:25:51.485Z,9.91
2016-11-17T05:26:51.510Z,9.91
2016-11-17T05:27:51.529Z,9.89
2016-11-17T05:28:51.553Z,9.94
2016-11-17T05:29:51.576Z,9.96
2016-11-17T05:30:51.597Z,9.94
2016-11-17T05:31:51.621Z,9.83
2016-11-17T05:32:51.638Z,9.89
2016-11-17T05:33:51.659Z,9.9
2016-11-17T05:35:06.590Z,9.96
2016-11-17T05:35:51.698Z,9.99
2016-11-17T05:36:51.719Z,9.94
2016-11-17T05:37:51.792Z,9.93
2016-11-17T05:38:51.765Z,9.96
2016-11-17T05:39:51.783Z,9.86
2016-11-17T05:40:51.805Z,9.9
2016-11-17T05:41:51.826Z,9.89
2016-11-17T05:42:51.850Z,9.97
2016-11-17T05:43:51.867Z,9.91
2016-11-17T05:45:06.801Z,9.93
2016-11-17T05:45:51.912Z,9.9
2016-11-17T05:46:51.929Z,9.94
2016-11-17T05:47:52.019Z,9.91
2016-11-17T05:50:06.907Z,9.86
2016-11-17T05:50:52.016Z,9.93
2016-11-17T05:51:52.086Z,9.93
2016-11-17T05:52:52.063Z,9.93
2016-11-17T05:53:52.078Z,9.83
2016-11-17T05:55:07.015Z,9.91
2016-11-17T05:56:07.035Z,9.94
2016-11-17T05:56:52.145Z,9.91
2016-11-17T05:58:07.075Z,9.84
2016-11-17T05:59:07.095Z,9.86
2016-11-17T05:59:52.199Z,9.84
2016-11-17T06:00:52.224Z,9.91
2016-11-17T06:01:52.256Z,9.94
2016-11-17T06:02:52.265Z,9.91
2016-11-17T06:03:52.284Z,9.84
2016-11-17T06:04:52.308Z,9.9
2016-11-17T06:05:52.332Z,9.93
2016-11-17T06:06:52.348Z,9.84
2016-11-17T06:07:52.371Z,9.9
2016-11-17T06:08:52.443Z,9.86
2016-11-17T06:09:52.415Z,9.9
2016-11-17T06:10:52.433Z,9.89
2016-11-17T06:11:52.449Z,9.89
2016-11-17T06:12:52.478Z,9.89
2016-11-17T06:13:52.494Z,9.84
2016-11-17T06:15:07.429Z,9.84
2016-11-17T06:16:52.553Z,9.94
2016-11-17T06:17:52.581Z,9.94
2016-11-17T06:18:52.652Z,9.97
2016-11-17T06:19:52.927Z,10.05
2016-11-17T06:20:52.642Z,9.96
2016-11-17T06:22:07.576Z,9.94
2016-11-17T06:22:52.683Z,9.97
2016-11-17T06:23:52.708Z,9.9
2016-11-17T06:24:52.719Z,9.96
2016-11-17T06:25:52.755Z,9.97
2016-11-17T06:26:52.819Z,9.94
2016-11-17T06:27:52.791Z,9.9
2016-11-17T06:28:52.806Z,9.97
2016-11-17T06:30:07.745Z,9.94
2016-11-17T06:30:52.854Z,9.99
2016-11-17T06:31:52.869Z,9.97
2016-11-17T06:32:52.899Z,9.9
2016-11-17T06:33:52.915Z,9.93
2016-11-17T06:34:52.940Z,9.79
2016-11-17T06:36:53.009Z,9.86
2016-11-17T06:38:07.914Z,9.91
2016-11-17T06:39:53.041Z,9.83
2016-11-17T06:40:53.062Z,9.86
2016-11-17T06:41:53.081Z,9.84
2016-11-17T06:42:53.102Z,9.89
2016-11-17T06:44:08.038Z,9.87
2016-11-17T06:44:53.145Z,9.93
2016-11-17T06:45:53.419Z,9.89
2016-11-17T06:46:53.184Z,9.93
2016-11-17T06:47:53.202Z,9.91
2016-11-17T06:48:53.228Z,9.87
2016-11-17T06:49:53.253Z,9.94
2016-11-17T06:50:53.267Z,9.79
2016-11-17T06:51:53.288Z,9.89
2016-11-17T06:52:53.313Z,9.87
2016-11-17T06:54:08.248Z,9.75
2016-11-17T06:54:53.361Z,9.81
2016-11-17T06:55:53.373Z,9.83
2016-11-17T06:56:53.395Z,9.91
2016-11-17T06:57:53.416Z,10.01
2016-11-17T06:58:53.434Z,10.02
2016-11-17T07:00:08.373Z,10.01
2016-11-17T07:00:53.478Z,10.01
2016-11-17T07:01:53.500Z,10.05
2016-11-17T07:03:53.589Z,9.9
2016-11-17T07:04:53.562Z,9.91
2016-11-17T07:06:53.606Z,9.89
2016-11-17T07:07:53.627Z,9.91
2016-11-17T07:08:53.692Z,10.02
2016-11-17T07:10:08.578Z,9.96
2016-11-17T07:10:53.692Z,9.99
2016-11-17T07:11:53.714Z,10.04
2016-11-17T07:12:53.725Z,10.05
2016-11-17T07:13:53.748Z,10.09
2016-11-17T07:14:53.768Z,10.08
2016-11-17T07:15:53.794Z,10.12
2016-11-17T07:17:08.726Z,10.15
2016-11-17T07:17:53.833Z,10.07
2016-11-17T07:18:53.852Z,10.22
2016-11-17T07:19:54.073Z,10.2
2016-11-17T07:20:53.900Z,10.17
2016-11-17T07:21:54.217Z,10.2
2016-11-17T07:22:53.942Z,10.11
2016-11-17T07:23:53.956Z,10.15
2016-11-17T07:25:08.902Z,10.14
2016-11-17T07:25:54.007Z,10.08
2016-11-17T07:26:54.026Z,10.08
2016-11-17T07:27:54.046Z,10.07
2016-11-17T07:28:54.065Z,10.18
2016-11-17T07:29:54.398Z,10.18
2016-11-17T07:30:54.106Z,10.11
2016-11-17T07:31:54.138Z,10.17
2016-11-17T07:32:54.146Z,10.17
2016-11-17T07:33:54.171Z,10.14
2016-11-17T07:34:54.192Z,10.18
2016-11-17T07:35:54.212Z,10.2
2016-11-17T07:37:54.255Z,10.2
2016-11-17T07:39:54.304Z,10.25
2016-11-17T07:40:54.318Z,10.3
2016-11-17T07:41:54.386Z,10.22
2016-11-17T07:42:54.413Z,10.29
2016-11-17T07:43:54.378Z,10.25
2016-11-17T07:44:54.398Z,10.27
2016-11-17T07:46:09.341Z,10.33
2016-11-17T07:46:54.444Z,10.36
2016-11-17T07:47:54.464Z,10.36
2016-11-17T07:48:54.488Z,10.3
2016-11-17T07:49:54.504Z,10.26
2016-11-17T07:50:54.527Z,10.32
2016-11-17T07:51:54.548Z,10.32
2016-11-17T07:52:54.599Z,10.32
2016-11-17T07:53:54.594Z,10.33
2016-11-17T07:57:09.573Z,10.42
2016-11-17T07:57:54.676Z,10.42
2016-11-17T07:58:54.700Z,10.44
2016-11-17T07:59:54.724Z,10.47
2016-11-17T08:00:54.737Z,10.45
2016-11-17T08:01:54.762Z,10.55
2016-11-17T08:02:54.836Z,10.45
2016-11-17T08:03:54.856Z,10.59
2016-11-17T08:05:09.739Z,10.67
2016-11-17T08:05:54.844Z,10.67
2016-11-17T08:07:09.781Z,10.71
2016-11-17T08:07:54.888Z,10.68
2016-11-17T08:08:54.909Z,10.74
2016-11-17T08:09:54.936Z,10.7
2016-11-17T08:10:54.955Z,10.68
2016-11-17T08:13:55.023Z,10.67
2016-11-17T08:14:55.043Z,10.64
2016-11-17T08:15:55.116Z,10.59
2016-11-17T08:16:55.083Z,10.64
2016-11-17T08:17:55.106Z,10.71
2016-11-17T08:19:10.041Z,10.7
2016-11-17T08:19:55.142Z,10.71
2016-11-17T08:21:10.082Z,10.76
2016-11-17T08:21:55.190Z,10.74
2016-11-17T08:23:55.227Z,10.76
2016-11-17T08:25:55.280Z,10.81
2016-11-17T08:26:55.297Z,10.89
2016-11-17T08:27:55.323Z,10.89
2016-11-17T08:29:10.556Z,10.91
2016-11-17T08:29:55.361Z,10.99
2016-11-17T08:30:55.386Z,11.06
2016-11-17T08:31:55.406Z,10.92
2016-11-17T08:32:55.423Z,11.07
2016-11-17T08:33:55.442Z,11.09
2016-11-17T08:34:55.471Z,11.09
2016-11-17T08:35:55.488Z,11.06
2016-11-17T08:36:55.509Z,11.14
2016-11-17T08:37:55.536Z,11.14
2016-11-17T08:38:55.607Z,11.17
2016-11-17T08:39:55.580Z,11.09
2016-11-17T08:40:55.601Z,11.19
2016-11-17T08:42:55.639Z,11.15
2016-11-17T08:43:55.665Z,11.19
2016-11-17T08:45:10.600Z,11.15
2016-11-17T08:45:55.706Z,11.22
2016-11-17T08:46:55.734Z,11.22
2016-11-17T08:47:55.754Z,11.24
2016-11-17T08:49:10.693Z,11.24
2016-11-17T08:49:55.829Z,11.32
2016-11-17T08:50:55.818Z,11.29
2016-11-17T08:51:55.888Z,11.32
2016-11-17T08:52:55.862Z,11.35
2016-11-17T08:53:55.929Z,11.29
2016-11-17T08:54:55.921Z,11.24
2016-11-17T08:55:55.924Z,11.24
2016-11-17T08:56:55.946Z,11.28
2016-11-17T08:57:56.012Z,11.29
2016-11-17T08:58:55.992Z,11.25
2016-11-17T09:00:10.931Z,11.39
2016-11-17T09:00:56.044Z,11.24
2016-11-17T09:01:56.060Z,11.33
2016-11-17T09:02:56.079Z,11.27
2016-11-17T09:04:11.022Z,11.33
2016-11-17T09:04:56.124Z,11.36
2016-11-17T09:05:56.157Z,11.27
2016-11-17T09:06:56.166Z,11.36
2016-11-17T09:07:56.193Z,11.33
2016-11-17T09:08:56.211Z,11.35
2016-11-17T09:09:56.238Z,11.25
2016-11-17T09:10:56.260Z,11.27
2016-11-17T09:11:56.280Z,11.22
2016-11-17T09:13:56.325Z,11.37
2016-11-17T09:14:56.351Z,11.35
2016-11-17T09:15:56.370Z,11.42
2016-11-17T09:16:56.389Z,11.35
2016-11-17T09:17:56.419Z,11.46
2016-11-17T09:18:56.433Z,11.49
2016-11-17T09:19:56.510Z,11.43
2016-11-17T09:20:56.475Z,11.51
2016-11-17T09:21:56.502Z,11.46
2016-11-17T09:23:11.440Z,11.49
2016-11-17T09:23:56.551Z,11.43
2016-11-17T09:24:56.567Z,11.46
2016-11-17T09:25:56.616Z,11.44
2016-11-17T09:26:56.613Z,11.46
2016-11-17T09:27:56.631Z,11.43
2016-11-17T09:28:56.655Z,11.49
2016-11-17T09:29:56.684Z,11.39
2016-11-17T09:30:56.708Z,11.4
2016-11-17T09:33:56.779Z,11.35
2016-11-17T09:34:56.792Z,11.44
2016-11-17T09:35:56.815Z,11.49
2016-11-17T09:36:56.835Z,11.43
2016-11-17T09:37:56.859Z,11.52
2016-11-17T09:38:56.884Z,11.43
2016-11-17T09:39:56.953Z,11.39
2016-11-17T09:40:56.927Z,11.47
2016-11-17T09:41:56.943Z,11.47
2016-11-17T09:42:56.970Z,11.42
2016-11-17T09:43:56.993Z,11.39
2016-11-17T09:44:57.019Z,11.42
2016-11-17T09:45:57.034Z,11.42
2016-11-17T09:48:11.995Z,11.49
2016-11-17T09:48:57.101Z,11.44
2016-11-17T09:49:57.127Z,11.42
2016-11-17T09:51:57.168Z,11.39
2016-11-17T09:52:57.192Z,11.47
2016-11-17T09:54:12.131Z,11.44
2016-11-17T09:54:57.234Z,11.35
2016-11-17T09:55:57.261Z,11.25
2016-11-17T09:56:57.277Z,11.33
2016-11-17T09:57:57.610Z,11.36
2016-11-17T09:58:57.323Z,11.25
2016-11-17T09:59:57.343Z,11.28
2016-11-17T10:00:57.369Z,11.35
2016-11-17T10:02:57.768Z,11.19
2016-11-17T10:04:12.350Z,11.29
2016-11-17T10:04:57.461Z,11.27
2016-11-17T10:05:57.482Z,11.27
2016-11-17T10:06:57.518Z,11.29
2016-11-17T10:07:57.528Z,11.27
2016-11-17T10:08:57.546Z,11.27
2016-11-17T10:09:57.625Z,11.24
2016-11-17T10:10:57.594Z,11.32
2016-11-17T10:11:57.615Z,11.27
2016-11-17T10:12:57.636Z,11.27
2016-11-17T10:13:57.669Z,11.14
2016-11-17T10:14:57.682Z,11.14
2016-11-17T10:15:57.699Z,11.15
2016-11-17T10:16:57.729Z,11.11
2016-11-17T10:17:57.743Z,11.14
2016-11-17T10:18:57.767Z,11.09
2016-11-17T10:20:12.706Z,11.1
2016-11-17T10:20:57.817Z,11.07
2016-11-17T10:21:57.865Z,11.11
2016-11-17T10:22:57.854Z,11.07
2016-11-17T10:23:57.905Z,11.07
2016-11-17T10:24:57.897Z,11.17
2016-11-17T10:25:57.923Z,11.15
2016-11-17T10:27:12.860Z,11.21
2016-11-17T10:27:57.970Z,11.18
2016-11-17T10:29:12.901Z,11.15
2016-11-17T10:29:58.014Z,11.19
2016-11-17T10:30:58.135Z,11.17
2016-11-17T10:31:58.052Z,11.17
2016-11-17T10:32:58.127Z,11.14
2016-11-17T10:33:58.102Z,11.09
2016-11-17T10:35:13.036Z,11.19
2016-11-17T10:35:58.147Z,11.17
2016-11-17T10:36:58.163Z,11.19
2016-11-17T10:37:58.190Z,11.17
2016-11-17T10:38:58.205Z,11.17
2016-11-17T10:39:58.233Z,11.21
2016-11-17T10:40:58.251Z,11.15
2016-11-17T10:42:13.188Z,11.17
2016-11-17T10:43:13.210Z,11.17
2016-11-17T10:43:58.314Z,11.11
2016-11-17T10:44:58.338Z,11.14
2016-11-17T10:45:58.372Z,11.17
2016-11-17T10:46:58.380Z,11.09
2016-11-17T10:47:58.407Z,11.1
2016-11-17T10:48:58.478Z,11.1
2016-11-17T10:49:58.480Z,11.02
2016-11-17T10:50:58.475Z,11.07
2016-11-17T10:51:58.496Z,10.99
2016-11-17T10:52:58.513Z,10.92
2016-11-17T10:53:58.536Z,11.06
2016-11-17T10:54:58.564Z,10.97
2016-11-17T10:55:58.582Z,10.88
2016-11-17T10:57:13.519Z,10.91
2016-11-17T10:57:58.627Z,10.91
2016-11-17T10:58:58.647Z,10.91
2016-11-17T10:59:58.671Z,10.94
2016-11-17T11:00:58.689Z,10.86
2016-11-17T11:01:58.714Z,10.86
2016-11-17T11:02:58.729Z,10.97
2016-11-17T11:04:58.780Z,10.86
2016-11-17T11:05:58.797Z,10.96
2016-11-17T11:07:13.734Z,10.89
2016-11-17T11:07:58.843Z,11
2016-11-17T11:08:58.868Z,11.02
2016-11-17T11:09:58.925Z,10.96
2016-11-17T11:10:58.953Z,11
2016-11-17T11:11:58.929Z,10.89
2016-11-17T11:12:58.950Z,10.96
2016-11-17T11:14:13.889Z,10.91
2016-11-17T11:14:58.999Z,10.91
2016-11-17T11:15:59.018Z,10.91
2016-11-17T11:16:59.035Z,10.91
2016-11-17T11:17:59.066Z,10.86
2016-11-17T11:18:59.082Z,10.84
2016-11-17T11:19:59.099Z,10.91
2016-11-17T11:20:59.121Z,10.84
2016-11-17T11:21:59.151Z,10.79
2016-11-17T11:23:14.082Z,10.82
2016-11-17T11:23:59.193Z,10.86
2016-11-17T11:24:59.209Z,10.88
2016-11-17T11:25:59.232Z,10.89
2016-11-17T11:26:59.338Z,10.76
2016-11-17T11:27:59.277Z,10.82
2016-11-17T11:28:59.449Z,10.71
2016-11-17T11:29:59.324Z,10.79
2016-11-17T11:30:59.390Z,10.76
2016-11-17T11:31:59.412Z,10.79
2016-11-17T11:32:59.388Z,10.81
2016-11-17T11:34:59.433Z,10.89
2016-11-17T11:35:59.449Z,10.89
2016-11-17T11:36:59.512Z,10.81
2016-11-17T11:37:59.490Z,10.82
2016-11-17T11:39:59.536Z,10.91
2016-11-17T11:40:59.562Z,10.99
2016-11-17T11:41:59.581Z,10.92
2016-11-17T11:42:59.602Z,11.02
2016-11-17T11:43:59.649Z,10.96
2016-11-17T11:44:59.645Z,10.88
2016-11-17T11:45:59.667Z,10.99
2016-11-17T11:46:59.696Z,10.96
2016-11-17T11:47:59.717Z,10.97
2016-11-17T11:48:59.734Z,10.91
2016-11-17T11:49:59.754Z,10.99
2016-11-17T11:50:59.777Z,11.02
2016-11-17T11:51:59.800Z,11
2016-11-17T11:52:59.814Z,10.99
2016-11-17T11:53:59.839Z,11.06
2016-11-17T11:55:59.884Z,11.07
2016-11-17T11:56:59.907Z,11.06
2016-11-17T11:57:59.927Z,11.1
2016-11-17T11:58:59.949Z,11.07
2016-11-17T11:59:59.972Z,11.03
2016-11-17T12:00:59.998Z,11.04
2016-11-17T12:02:00.124Z,11.07
2016-11-17T12:03:14.950Z,10.91
2016-11-17T12:04:14.972Z,10.91
2016-11-17T12:05:00.080Z,11
2016-11-17T12:06:00.104Z,11
2016-11-17T12:07:00.129Z,11.06
2016-11-17T12:08:00.151Z,11
2016-11-17T12:09:00.172Z,11.11
2016-11-17T12:11:00.217Z,11.29
2016-11-17T12:12:00.230Z,11.33
2016-11-17T12:13:00.255Z,11.47
2016-11-17T12:14:00.276Z,11.51
2016-11-17T12:15:00.304Z,11.52
2016-11-17T12:16:15.238Z,11.57
2016-11-17T12:17:00.355Z,11.47
2016-11-17T12:18:00.367Z,11.57
2016-11-17T12:19:15.301Z,11.46
2016-11-17T12:20:00.420Z,11.43
2016-11-17T12:21:00.428Z,11.46
2016-11-17T12:22:00.455Z,11.57
2016-11-17T12:23:00.474Z,11.57
2016-11-17T12:24:00.497Z,11.65
2016-11-17T12:25:00.519Z,11.64
2016-11-17T12:27:00.567Z,11.75
2016-11-17T12:28:01.044Z,11.65
2016-11-17T12:29:00.607Z,11.61
2016-11-17T12:30:00.632Z,11.69
2016-11-17T12:31:00.655Z,11.52
2016-11-17T12:32:00.678Z,11.58
2016-11-17T12:33:00.713Z,11.57
2016-11-17T12:34:00.718Z,11.55
2016-11-17T12:35:01.095Z,11.58
2016-11-17T12:36:01.068Z,11.51
2016-11-17T12:37:00.787Z,11.54
2016-11-17T12:38:00.806Z,11.49
2016-11-17T12:39:00.835Z,11.69
2016-11-17T12:40:00.857Z,11.69
2016-11-17T12:42:15.820Z,11.67
2016-11-17T12:43:00.923Z,11.67
2016-11-17T12:44:00.943Z,11.65
2016-11-17T12:45:01.002Z,11.73
2016-11-17T12:46:01.011Z,11.7
2016-11-17T12:47:01.013Z,11.75
2016-11-17T12:48:01.053Z,11.69
2016-11-17T12:49:01.053Z,11.69
2016-11-17T12:50:15.991Z,11.69
2016-11-17T12:51:01.099Z,11.64
2016-11-17T12:52:01.121Z,11.58
2016-11-17T12:54:01.173Z,11.55
2016-11-17T12:55:01.186Z,11.46
2016-11-17T12:57:01.235Z,11.47
2016-11-17T12:58:16.178Z,11.4
2016-11-17T12:59:01.331Z,11.47
2016-11-17T13:00:01.299Z,11.47
2016-11-17T13:01:01.328Z,11.54
2016-11-17T13:02:01.348Z,11.51
2016-11-17T13:03:01.370Z,11.54
2016-11-17T13:04:01.385Z,11.61
2016-11-17T13:05:01.410Z,11.55
2016-11-17T13:06:01.432Z,11.55
2016-11-17T13:07:01.456Z,11.49
2016-11-17T13:08:01.480Z,11.54
2016-11-17T13:09:01.502Z,11.69
2016-11-17T13:10:01.576Z,11.65
2016-11-17T13:11:01.550Z,11.69
2016-11-17T13:13:01.592Z,11.6
2016-11-17T13:14:16.531Z,11.7
2016-11-17T13:15:01.636Z,11.7
2016-11-17T13:16:16.579Z,11.69
2016-11-17T13:17:01.684Z,11.6
2016-11-17T13:18:01.702Z,11.54
2016-11-17T13:19:01.726Z,11.57
2016-11-17T13:21:01.769Z,11.6
2016-11-17T13:22:01.793Z,11.58
2016-11-17T13:23:16.728Z,11.57
2016-11-17T13:24:01.842Z,11.61
2016-11-17T13:25:01.909Z,11.55
2016-11-17T13:27:01.901Z,11.72
2016-11-17T13:28:01.929Z,11.72
2016-11-17T13:30:16.888Z,11.69
2016-11-17T13:31:01.999Z,11.67
2016-11-17T13:32:02.048Z,11.67
2016-11-17T13:33:02.036Z,11.64
2016-11-17T13:34:02.058Z,11.69
2016-11-17T13:35:02.084Z,11.58
2016-11-17T13:36:02.153Z,11.61
2016-11-17T13:37:02.132Z,11.72
2016-11-17T13:38:02.467Z,11.65
2016-11-17T13:40:02.196Z,11.62
2016-11-17T13:41:02.220Z,11.58
2016-11-17T13:42:02.240Z,11.54
2016-11-17T13:43:02.270Z,11.51
2016-11-17T13:44:02.294Z,11.6
2016-11-17T13:45:17.274Z,11.54
2016-11-17T13:46:02.330Z,11.7
2016-11-17T13:47:02.356Z,11.55
2016-11-17T13:48:02.368Z,11.49
2016-11-17T13:49:02.397Z,11.57
2016-11-17T13:50:17.385Z,11.47
2016-11-17T13:51:02.441Z,11.54
2016-11-17T13:53:02.486Z,11.61
2016-11-17T13:54:02.508Z,11.47
2016-11-17T13:55:02.530Z,11.54
2016-11-17T13:56:02.555Z,11.6
2016-11-17T13:57:02.571Z,11.61
2016-11-17T13:58:02.600Z,11.62
2016-11-17T13:59:02.616Z,11.55
2016-11-17T14:00:02.636Z,11.55
2016-11-17T14:01:02.665Z,11.58